sensor_id;sensor_type;location;lat;lon;timestamp;temperature;humidity
1958;DHT22;979;51.076;13.748;2023-05-07T00:01:09;13.40;72.00
1958;DHT22;979;51.076;13.748;2023-05-07T00:03:37;13.30;72.10
1958;DHT22;979;51.076;13.748;2023-05-07T00:06:06;13.20;71.90
1958;DHT22;979;51.076;13.748;2023-05-07T00:08:34;13.20;72.10
1958;DHT22;979;51.076;13.748;2023-05-07T00:11:03;13.10;72.30
1958;DHT22;979;51.076;13.748;2023-05-07T00:13:31;13.10;72.20
1958;DHT22;979;51.076;13.748;2023-05-07T00:16:02;13.10;72.50
1958;DHT22;979;51.076;13.748;2023-05-07T00:18:34;13.10;72.30
1958;DHT22;979;51.076;13.748;2023-05-07T00:21:02;13.10;72.60
1958;DHT22;979;51.076;13.748;2023-05-07T00:23:30;13.10;72.60
1958;DHT22;979;51.076;13.748;2023-05-07T00:25:59;13.00;72.50
1958;DHT22;979;51.076;13.748;2023-05-07T00:28:27;12.90;72.50
1958;DHT22;979;51.076;13.748;2023-05-07T00:30:56;12.90;72.70
1958;DHT22;979;51.076;13.748;2023-05-07T00:33:24;12.90;72.80
1958;DHT22;979;51.076;13.748;2023-05-07T00:35:55;13.00;72.90
1958;DHT22;979;51.076;13.748;2023-05-07T00:38:23;12.90;72.80
1958;DHT22;979;51.076;13.748;2023-05-07T00:40:53;12.90;72.70
1958;DHT22;979;51.076;13.748;2023-05-07T00:43:22;12.90;72.80
1958;DHT22;979;51.076;13.748;2023-05-07T00:45:51;12.90;72.70
1958;DHT22;979;51.076;13.748;2023-05-07T00:48:20;12.90;72.70
1958;DHT22;979;51.076;13.748;2023-05-07T00:50:48;12.90;72.70
1958;DHT22;979;51.076;13.748;2023-05-07T00:53:18;13.00;72.90
1958;DHT22;979;51.076;13.748;2023-05-07T00:55:48;13.00;72.70
1958;DHT22;979;51.076;13.748;2023-05-07T00:58:17;13.00;72.60
1958;DHT22;979;51.076;13.748;2023-05-07T01:00:45;13.00;73.30
1958;DHT22;979;51.076;13.748;2023-05-07T01:03:13;13.00;72.60
1958;DHT22;979;51.076;13.748;2023-05-07T01:05:43;13.00;72.60
1958;DHT22;979;51.076;13.748;2023-05-07T01:08:14;12.90;72.50
1958;DHT22;979;51.076;13.748;2023-05-07T01:10:47;12.90;72.40
1958;DHT22;979;51.076;13.748;2023-05-07T01:13:16;12.90;72.50
1958;DHT22;979;51.076;13.748;2023-05-07T01:15:44;12.90;72.60
1958;DHT22;979;51.076;13.748;2023-05-07T01:18:13;12.90;72.50
1958;DHT22;979;51.076;13.748;2023-05-07T01:20:42;12.90;72.50
1958;DHT22;979;51.076;13.748;2023-05-07T01:23:12;13.00;72.60
1958;DHT22;979;51.076;13.748;2023-05-07T01:25:41;12.90;72.40
1958;DHT22;979;51.076;13.748;2023-05-07T01:28:11;13.00;72.50
1958;DHT22;979;51.076;13.748;2023-05-07T01:30:46;12.90;73.10
1958;DHT22;979;51.076;13.748;2023-05-07T01:33:18;12.90;72.30
1958;DHT22;979;51.076;13.748;2023-05-07T01:35:52;13.00;72.70
1958;DHT22;979;51.076;13.748;2023-05-07T01:38:24;13.00;72.60
1958;DHT22;979;51.076;13.748;2023-05-07T01:41:00;13.00;72.90
1958;DHT22;979;51.076;13.748;2023-05-07T01:43:34;13.10;72.60
1958;DHT22;979;51.076;13.748;2023-05-07T01:46:06;13.10;72.60
1958;DHT22;979;51.076;13.748;2023-05-07T01:48:42;13.10;72.80
1958;DHT22;979;51.076;13.748;2023-05-07T01:51:21;13.10;72.90
1958;DHT22;979;51.076;13.748;2023-05-07T01:53:55;13.00;72.60
1958;DHT22;979;51.076;13.748;2023-05-07T01:56:32;13.10;72.80
1958;DHT22;979;51.076;13.748;2023-05-07T01:59:04;13.10;72.80
1958;DHT22;979;51.076;13.748;2023-05-07T02:01:33;13.10;72.60
1958;DHT22;979;51.076;13.748;2023-05-07T02:04:07;13.20;72.80
1958;DHT22;979;51.076;13.748;2023-05-07T02:06:39;13.10;72.70
1958;DHT22;979;51.076;13.748;2023-05-07T02:09:19;13.10;72.60
1958;DHT22;979;51.076;13.748;2023-05-07T02:11:58;13.10;72.30
1958;DHT22;979;51.076;13.748;2023-05-07T02:14:28;13.10;72.60
1958;DHT22;979;51.076;13.748;2023-05-07T02:16:59;13.20;72.60
1958;DHT22;979;51.076;13.748;2023-05-07T02:19:35;13.10;72.40
1958;DHT22;979;51.076;13.748;2023-05-07T02:22:09;13.10;72.50
1958;DHT22;979;51.076;13.748;2023-05-07T02:24:40;13.10;72.30
1958;DHT22;979;51.076;13.748;2023-05-07T02:27:11;13.00;72.60
1958;DHT22;979;51.076;13.748;2023-05-07T02:29:40;13.00;72.40
1958;DHT22;979;51.076;13.748;2023-05-07T02:32:11;13.00;72.30
1958;DHT22;979;51.076;13.748;2023-05-07T02:34:42;13.00;72.50
1958;DHT22;979;51.076;13.748;2023-05-07T02:37:12;13.00;73.30
1958;DHT22;979;51.076;13.748;2023-05-07T02:39:49;13.10;72.60
1958;DHT22;979;51.076;13.748;2023-05-07T02:42:27;13.00;72.50
1958;DHT22;979;51.076;13.748;2023-05-07T02:44:59;13.10;72.80
1958;DHT22;979;51.076;13.748;2023-05-07T02:47:38;13.00;72.20
1958;DHT22;979;51.076;13.748;2023-05-07T02:50:07;13.00;72.30
1958;DHT22;979;51.076;13.748;2023-05-07T02:52:36;13.00;72.30
1958;DHT22;979;51.076;13.748;2023-05-07T02:55:06;12.90;72.10
1958;DHT22;979;51.076;13.748;2023-05-07T02:57:35;12.70;72.00
1958;DHT22;979;51.076;13.748;2023-05-07T03:00:15;12.90;72.40
1958;DHT22;979;51.076;13.748;2023-05-07T03:03:01;12.90;72.30
1958;DHT22;979;51.076;13.748;2023-05-07T03:05:43;12.70;72.40
1958;DHT22;979;51.076;13.748;2023-05-07T03:08:19;12.90;72.70
1958;DHT22;979;51.076;13.748;2023-05-07T03:10:56;12.70;72.40
1958;DHT22;979;51.076;13.748;2023-05-07T03:13:28;12.90;72.60
1958;DHT22;979;51.076;13.748;2023-05-07T03:16:07;12.90;72.80
1958;DHT22;979;51.076;13.748;2023-05-07T03:18:43;12.80;72.50
1958;DHT22;979;51.076;13.748;2023-05-07T03:21:12;12.90;72.60
1958;DHT22;979;51.076;13.748;2023-05-07T03:23:45;12.90;72.60
1958;DHT22;979;51.076;13.748;2023-05-07T03:26:27;12.90;72.50
1958;DHT22;979;51.076;13.748;2023-05-07T03:29:01;12.70;72.40
1958;DHT22;979;51.076;13.748;2023-05-07T03:31:38;12.80;72.70
1958;DHT22;979;51.076;13.748;2023-05-07T03:34:11;13.00;72.30
1958;DHT22;979;51.076;13.748;2023-05-07T03:36:41;12.70;72.20
1958;DHT22;979;51.076;13.748;2023-05-07T03:39:17;12.70;72.60
1958;DHT22;979;51.076;13.748;2023-05-07T03:41:56;12.70;72.70
1958;DHT22;979;51.076;13.748;2023-05-07T03:44:31;12.60;72.40
1958;DHT22;979;51.076;13.748;2023-05-07T03:47:07;12.60;72.60
1958;DHT22;979;51.076;13.748;2023-05-07T03:49:49;12.60;72.80
1958;DHT22;979;51.076;13.748;2023-05-07T03:52:24;12.60;72.80
1958;DHT22;979;51.076;13.748;2023-05-07T03:55:00;12.60;72.90
1958;DHT22;979;51.076;13.748;2023-05-07T03:57:53;12.60;72.60
1958;DHT22;979;51.076;13.748;2023-05-07T04:00:29;12.70;72.80
1958;DHT22;979;51.076;13.748;2023-05-07T04:03:18;12.60;72.80
1958;DHT22;979;51.076;13.748;2023-05-07T04:06:00;12.60;72.50
1958;DHT22;979;51.076;13.748;2023-05-07T04:08:33;12.60;72.70
1958;DHT22;979;51.076;13.748;2023-05-07T04:11:14;12.60;72.80
1958;DHT22;979;51.076;13.748;2023-05-07T04:13:48;12.60;72.80
1958;DHT22;979;51.076;13.748;2023-05-07T04:16:26;12.70;73.00
1958;DHT22;979;51.076;13.748;2023-05-07T04:18:57;12.50;72.30
1958;DHT22;979;51.076;13.748;2023-05-07T04:21:26;12.70;72.80
1958;DHT22;979;51.076;13.748;2023-05-07T04:23:56;12.70;72.70
1958;DHT22;979;51.076;13.748;2023-05-07T04:26:32;12.60;73.10
1958;DHT22;979;51.076;13.748;2023-05-07T04:29:02;12.70;72.80
1958;DHT22;979;51.076;13.748;2023-05-07T04:31:33;12.70;73.10
1958;DHT22;979;51.076;13.748;2023-05-07T04:34:06;12.70;72.80
1958;DHT22;979;51.076;13.748;2023-05-07T04:36:42;12.70;72.80
1958;DHT22;979;51.076;13.748;2023-05-07T04:39:14;12.70;73.00
1958;DHT22;979;51.076;13.748;2023-05-07T04:41:48;12.80;73.20
1958;DHT22;979;51.076;13.748;2023-05-07T04:44:42;12.80;73.30
1958;DHT22;979;51.076;13.748;2023-05-07T04:47:17;12.90;72.80
1958;DHT22;979;51.076;13.748;2023-05-07T04:49:46;12.90;72.70
1958;DHT22;979;51.076;13.748;2023-05-07T04:52:20;12.90;72.80
1958;DHT22;979;51.076;13.748;2023-05-07T04:54:55;12.90;72.70
1958;DHT22;979;51.076;13.748;2023-05-07T04:57:28;12.90;72.40
1958;DHT22;979;51.076;13.748;2023-05-07T05:00:01;12.90;72.20
1958;DHT22;979;51.076;13.748;2023-05-07T05:02:39;13.00;72.30
1958;DHT22;979;51.076;13.748;2023-05-07T05:05:20;13.00;72.40
1958;DHT22;979;51.076;13.748;2023-05-07T05:08:03;13.00;72.40
1958;DHT22;979;51.076;13.748;2023-05-07T05:10:41;13.00;73.10
1958;DHT22;979;51.076;13.748;2023-05-07T05:13:26;13.00;72.40
1958;DHT22;979;51.076;13.748;2023-05-07T05:16:19;13.00;72.50
1958;DHT22;979;51.076;13.748;2023-05-07T05:19:04;13.10;72.40
1958;DHT22;979;51.076;13.748;2023-05-07T05:21:39;13.00;72.20
1958;DHT22;979;51.076;13.748;2023-05-07T05:24:19;13.00;72.30
1958;DHT22;979;51.076;13.748;2023-05-07T05:26:53;13.00;72.00
1958;DHT22;979;51.076;13.748;2023-05-07T05:29:26;13.10;72.00
1958;DHT22;979;51.076;13.748;2023-05-07T05:32:05;13.10;72.10
1958;DHT22;979;51.076;13.748;2023-05-07T05:34:40;13.20;72.10
1958;DHT22;979;51.076;13.748;2023-05-07T05:37:21;13.30;72.30
1958;DHT22;979;51.076;13.748;2023-05-07T05:39:55;13.30;71.70
1958;DHT22;979;51.076;13.748;2023-05-07T05:42:46;13.30;71.70
1958;DHT22;979;51.076;13.748;2023-05-07T05:45:19;13.20;71.20
1958;DHT22;979;51.076;13.748;2023-05-07T05:47:49;13.30;71.40
1958;DHT22;979;51.076;13.748;2023-05-07T05:50:24;13.30;71.30
1958;DHT22;979;51.076;13.748;2023-05-07T05:53:01;13.10;71.10
1958;DHT22;979;51.076;13.748;2023-05-07T05:55:34;13.30;71.10
1958;DHT22;979;51.076;13.748;2023-05-07T05:58:14;13.30;71.30
1958;DHT22;979;51.076;13.748;2023-05-07T06:00:59;13.30;71.40
1958;DHT22;979;51.076;13.748;2023-05-07T06:03:45;13.30;71.20
1958;DHT22;979;51.076;13.748;2023-05-07T06:06:30;13.40;70.90
1958;DHT22;979;51.076;13.748;2023-05-07T06:09:09;13.40;71.10
1958;DHT22;979;51.076;13.748;2023-05-07T06:11:45;13.50;71.20
1958;DHT22;979;51.076;13.748;2023-05-07T06:14:25;13.50;70.90
1958;DHT22;979;51.076;13.748;2023-05-07T06:17:03;13.60;71.10
1958;DHT22;979;51.076;13.748;2023-05-07T06:19:50;13.60;70.70
1958;DHT22;979;51.076;13.748;2023-05-07T06:22:25;13.60;70.60
1958;DHT22;979;51.076;13.748;2023-05-07T06:25:01;13.70;71.10
1958;DHT22;979;51.076;13.748;2023-05-07T06:27:36;13.70;70.50
1958;DHT22;979;51.076;13.748;2023-05-07T06:30:12;13.70;70.20
1958;DHT22;979;51.076;13.748;2023-05-07T06:32:50;13.70;70.00
1958;DHT22;979;51.076;13.748;2023-05-07T06:35:29;13.70;70.50
1958;DHT22;979;51.076;13.748;2023-05-07T06:38:02;13.60;69.90
1958;DHT22;979;51.076;13.748;2023-05-07T06:40:38;13.70;70.20
1958;DHT22;979;51.076;13.748;2023-05-07T06:43:14;13.60;70.20
1958;DHT22;979;51.076;13.748;2023-05-07T06:46:05;13.70;69.90
1958;DHT22;979;51.076;13.748;2023-05-07T06:49:04;13.70;70.10
1958;DHT22;979;51.076;13.748;2023-05-07T06:51:39;13.50;69.30
1958;DHT22;979;51.076;13.748;2023-05-07T06:54:27;13.60;69.70
1958;DHT22;979;51.076;13.748;2023-05-07T06:57:14;13.70;69.40
1958;DHT22;979;51.076;13.748;2023-05-07T07:00:14;13.50;69.40
1958;DHT22;979;51.076;13.748;2023-05-07T07:03:04;13.40;69.50
1958;DHT22;979;51.076;13.748;2023-05-07T07:06:08;13.40;69.90
1958;DHT22;979;51.076;13.748;2023-05-07T07:08:58;13.40;69.90
1958;DHT22;979;51.076;13.748;2023-05-07T07:11:30;13.40;70.00
1958;DHT22;979;51.076;13.748;2023-05-07T07:14:10;13.50;70.60
1958;DHT22;979;51.076;13.748;2023-05-07T07:16:55;13.50;70.10
1958;DHT22;979;51.076;13.748;2023-05-07T07:19:41;13.50;70.00
1958;DHT22;979;51.076;13.748;2023-05-07T07:22:26;13.60;69.90
1958;DHT22;979;51.076;13.748;2023-05-07T07:25:57;13.60;69.40
1958;DHT22;979;51.076;13.748;2023-05-07T07:28:53;13.70;69.30
1958;DHT22;979;51.076;13.748;2023-05-07T07:31:51;13.70;69.50
1958;DHT22;979;51.076;13.748;2023-05-07T07:34:35;13.80;69.60
1958;DHT22;979;51.076;13.748;2023-05-07T07:37:18;13.90;69.20
1958;DHT22;979;51.076;13.748;2023-05-07T07:40:44;14.00;69.40
1958;DHT22;979;51.076;13.748;2023-05-07T07:43:40;14.10;69.00
1958;DHT22;979;51.076;13.748;2023-05-07T07:46:15;14.10;68.80
1958;DHT22;979;51.076;13.748;2023-05-07T07:49:04;14.20;68.10
1958;DHT22;979;51.076;13.748;2023-05-07T07:51:39;14.00;68.40
1958;DHT22;979;51.076;13.748;2023-05-07T07:54:16;13.90;68.30
1958;DHT22;979;51.076;13.748;2023-05-07T07:57:01;13.90;68.70
1958;DHT22;979;51.076;13.748;2023-05-07T07:59:35;13.80;68.60
1958;DHT22;979;51.076;13.748;2023-05-07T08:02:11;13.90;68.80
1958;DHT22;979;51.076;13.748;2023-05-07T08:04:43;13.90;68.70
1958;DHT22;979;51.076;13.748;2023-05-07T08:07:29;13.90;68.30
1958;DHT22;979;51.076;13.748;2023-05-07T08:10:04;14.00;68.20
1958;DHT22;979;51.076;13.748;2023-05-07T08:12:37;14.00;67.90
1958;DHT22;979;51.076;13.748;2023-05-07T08:15:28;14.00;68.40
1958;DHT22;979;51.076;13.748;2023-05-07T08:18:05;13.90;67.70
1958;DHT22;979;51.076;13.748;2023-05-07T08:20:44;13.90;67.50
1958;DHT22;979;51.076;13.748;2023-05-07T08:23:17;13.80;67.50
1958;DHT22;979;51.076;13.748;2023-05-07T08:25:46;13.80;67.60
1958;DHT22;979;51.076;13.748;2023-05-07T08:28:23;13.90;68.00
1958;DHT22;979;51.076;13.748;2023-05-07T08:30:58;14.00;68.20
1958;DHT22;979;51.076;13.748;2023-05-07T08:33:32;14.10;67.60
1958;DHT22;979;51.076;13.748;2023-05-07T08:36:05;14.20;67.90
1958;DHT22;979;51.076;13.748;2023-05-07T08:38:34;14.30;67.80
1958;DHT22;979;51.076;13.748;2023-05-07T08:41:40;14.40;67.70
1958;DHT22;979;51.076;13.748;2023-05-07T08:44:34;14.50;67.00
1958;DHT22;979;51.076;13.748;2023-05-07T08:50:47;14.30;66.70
1958;DHT22;979;51.076;13.748;2023-05-07T08:53:52;14.30;67.00
1958;DHT22;979;51.076;13.748;2023-05-07T08:57:11;14.30;66.80
1958;DHT22;979;51.076;13.748;2023-05-07T09:00:03;14.20;66.80
1958;DHT22;979;51.076;13.748;2023-05-07T09:02:54;14.30;67.10
1958;DHT22;979;51.076;13.748;2023-05-07T09:05:33;14.30;67.10
1958;DHT22;979;51.076;13.748;2023-05-07T09:08:08;14.30;67.40
1958;DHT22;979;51.076;13.748;2023-05-07T09:10:50;14.40;67.20
1958;DHT22;979;51.076;13.748;2023-05-07T09:13:34;14.50;67.20
1958;DHT22;979;51.076;13.748;2023-05-07T09:16:27;14.40;67.10
1958;DHT22;979;51.076;13.748;2023-05-07T09:19:32;14.30;66.50
1958;DHT22;979;51.076;13.748;2023-05-07T09:22:33;14.50;67.20
1958;DHT22;979;51.076;13.748;2023-05-07T09:25:24;14.60;67.00
1958;DHT22;979;51.076;13.748;2023-05-07T09:28:15;14.70;66.60
1958;DHT22;979;51.076;13.748;2023-05-07T09:31:02;14.80;66.70
1958;DHT22;979;51.076;13.748;2023-05-07T09:33:43;14.70;66.10
1958;DHT22;979;51.076;13.748;2023-05-07T09:36:27;14.70;66.10
1958;DHT22;979;51.076;13.748;2023-05-07T09:38:59;14.80;66.00
1958;DHT22;979;51.076;13.748;2023-05-07T09:41:30;14.80;65.70
1958;DHT22;979;51.076;13.748;2023-05-07T09:44:10;14.70;65.50
1958;DHT22;979;51.076;13.748;2023-05-07T09:46:47;14.70;65.40
1958;DHT22;979;51.076;13.748;2023-05-07T09:49:24;14.70;65.30
1958;DHT22;979;51.076;13.748;2023-05-07T09:52:01;14.80;65.40
1958;DHT22;979;51.076;13.748;2023-05-07T09:54:34;15.00;65.70
1958;DHT22;979;51.076;13.748;2023-05-07T09:57:06;15.10;65.30
1958;DHT22;979;51.076;13.748;2023-05-07T09:59:37;15.10;64.90
1958;DHT22;979;51.076;13.748;2023-05-07T10:02:10;15.00;64.50
1958;DHT22;979;51.076;13.748;2023-05-07T10:04:46;14.90;64.60
1958;DHT22;979;51.076;13.748;2023-05-07T10:07:20;14.90;64.80
1958;DHT22;979;51.076;13.748;2023-05-07T10:09:52;14.90;65.00
1958;DHT22;979;51.076;13.748;2023-05-07T10:12:31;14.90;65.00
1958;DHT22;979;51.076;13.748;2023-05-07T10:15:11;15.00;65.10
1958;DHT22;979;51.076;13.748;2023-05-07T10:17:44;15.10;65.00
1958;DHT22;979;51.076;13.748;2023-05-07T10:20:13;15.20;65.30
1958;DHT22;979;51.076;13.748;2023-05-07T10:22:47;15.40;65.20
1958;DHT22;979;51.076;13.748;2023-05-07T10:25:23;15.50;64.80
1958;DHT22;979;51.076;13.748;2023-05-07T10:27:57;15.70;64.40
1958;DHT22;979;51.076;13.748;2023-05-07T10:30:38;15.80;64.90
1958;DHT22;979;51.076;13.748;2023-05-07T10:33:12;15.90;63.80
1958;DHT22;979;51.076;13.748;2023-05-07T10:35:45;15.90;63.20
1958;DHT22;979;51.076;13.748;2023-05-07T10:38:17;15.90;63.00
1958;DHT22;979;51.076;13.748;2023-05-07T10:40:46;15.90;63.40
1958;DHT22;979;51.076;13.748;2023-05-07T10:43:17;16.00;63.50
1958;DHT22;979;51.076;13.748;2023-05-07T10:46:10;16.00;63.30
1958;DHT22;979;51.076;13.748;2023-05-07T10:49:08;16.10;63.20
1958;DHT22;979;51.076;13.748;2023-05-07T10:52:15;16.30;63.00
1958;DHT22;979;51.076;13.748;2023-05-07T10:55:21;16.40;62.90
1958;DHT22;979;51.076;13.748;2023-05-07T10:58:22;16.60;62.60
1958;DHT22;979;51.076;13.748;2023-05-07T11:01:13;16.90;62.00
1958;DHT22;979;51.076;13.748;2023-05-07T11:04:15;17.00;61.70
1958;DHT22;979;51.076;13.748;2023-05-07T11:07:26;17.00;60.80
1958;DHT22;979;51.076;13.748;2023-05-07T11:10:04;17.10;61.30
1958;DHT22;979;51.076;13.748;2023-05-07T11:12:55;17.20;61.30
1958;DHT22;979;51.076;13.748;2023-05-07T11:15:43;17.40;61.50
1958;DHT22;979;51.076;13.748;2023-05-07T11:18:46;17.50;60.90
1958;DHT22;979;51.076;13.748;2023-05-07T11:21:32;17.50;60.30
1958;DHT22;979;51.076;13.748;2023-05-07T11:24:09;17.40;60.00
1958;DHT22;979;51.076;13.748;2023-05-07T11:26:49;17.30;60.00
1958;DHT22;979;51.076;13.748;2023-05-07T11:29:22;17.30;60.00
1958;DHT22;979;51.076;13.748;2023-05-07T11:31:58;17.30;60.30
1958;DHT22;979;51.076;13.748;2023-05-07T11:34:33;17.30;60.10
1958;DHT22;979;51.076;13.748;2023-05-07T11:37:04;17.30;60.00
1958;DHT22;979;51.076;13.748;2023-05-07T11:39:47;17.20;59.90
1958;DHT22;979;51.076;13.748;2023-05-07T11:42:28;17.20;59.70
1958;DHT22;979;51.076;13.748;2023-05-07T11:44:58;17.20;59.60
1958;DHT22;979;51.076;13.748;2023-05-07T11:47:29;17.20;59.80
1958;DHT22;979;51.076;13.748;2023-05-07T11:50:02;17.20;59.80
1958;DHT22;979;51.076;13.748;2023-05-07T11:52:38;17.30;59.90
1958;DHT22;979;51.076;13.748;2023-05-07T11:55:24;17.50;59.80
1958;DHT22;979;51.076;13.748;2023-05-07T11:57:56;17.70;60.50
1958;DHT22;979;51.076;13.748;2023-05-07T12:00:26;17.60;59.60
1958;DHT22;979;51.076;13.748;2023-05-07T12:02:55;17.60;59.50
1958;DHT22;979;51.076;13.748;2023-05-07T12:05:25;17.60;59.30
1958;DHT22;979;51.076;13.748;2023-05-07T12:07:56;17.60;59.60
1958;DHT22;979;51.076;13.748;2023-05-07T12:10:25;17.70;59.60
1958;DHT22;979;51.076;13.748;2023-05-07T12:12:54;17.70;59.60
1958;DHT22;979;51.076;13.748;2023-05-07T12:15:23;17.70;59.30
1958;DHT22;979;51.076;13.748;2023-05-07T12:17:53;17.80;59.50
1958;DHT22;979;51.076;13.748;2023-05-07T12:20:21;17.80;59.40
1958;DHT22;979;51.076;13.748;2023-05-07T12:22:50;17.90;59.70
1958;DHT22;979;51.076;13.748;2023-05-07T12:25:22;18.00;59.50
1958;DHT22;979;51.076;13.748;2023-05-07T12:27:54;18.20;59.50
1958;DHT22;979;51.076;13.748;2023-05-07T12:30:24;18.30;59.20
1958;DHT22;979;51.076;13.748;2023-05-07T12:32:54;18.30;59.10
1958;DHT22;979;51.076;13.748;2023-05-07T12:35:27;18.40;58.90
1958;DHT22;979;51.076;13.748;2023-05-07T12:37:55;18.40;58.70
1958;DHT22;979;51.076;13.748;2023-05-07T12:40:35;18.40;58.50
1958;DHT22;979;51.076;13.748;2023-05-07T12:43:04;18.30;58.20
1958;DHT22;979;51.076;13.748;2023-05-07T12:45:37;18.30;58.50
1958;DHT22;979;51.076;13.748;2023-05-07T12:48:06;18.20;58.30
1958;DHT22;979;51.076;13.748;2023-05-07T12:50:37;18.20;58.50
1958;DHT22;979;51.076;13.748;2023-05-07T12:53:06;18.40;58.80
1958;DHT22;979;51.076;13.748;2023-05-07T12:55:41;18.50;58.50
1958;DHT22;979;51.076;13.748;2023-05-07T12:58:16;18.90;58.90
1958;DHT22;979;51.076;13.748;2023-05-07T13:00:47;19.30;58.50
1958;DHT22;979;51.076;13.748;2023-05-07T13:03:25;19.50;58.10
1958;DHT22;979;51.076;13.748;2023-05-07T13:05:54;19.70;57.70
1958;DHT22;979;51.076;13.748;2023-05-07T13:08:26;19.80;57.50
1958;DHT22;979;51.076;13.748;2023-05-07T13:10:57;20.00;57.20
1958;DHT22;979;51.076;13.748;2023-05-07T13:13:28;19.90;56.60
1958;DHT22;979;51.076;13.748;2023-05-07T13:15:58;19.90;56.70
1958;DHT22;979;51.076;13.748;2023-05-07T13:18:30;20.00;56.70
1958;DHT22;979;51.076;13.748;2023-05-07T13:21:00;20.20;56.50
1958;DHT22;979;51.076;13.748;2023-05-07T13:23:31;20.50;56.10
1958;DHT22;979;51.076;13.748;2023-05-07T13:25:59;20.60;55.70
1958;DHT22;979;51.076;13.748;2023-05-07T13:28:37;20.50;56.00
1958;DHT22;979;51.076;13.748;2023-05-07T13:31:05;20.40;55.20
1958;DHT22;979;51.076;13.748;2023-05-07T13:33:35;20.30;55.30
1958;DHT22;979;51.076;13.748;2023-05-07T13:36:04;20.20;55.30
1958;DHT22;979;51.076;13.748;2023-05-07T13:38:33;20.00;54.60
1958;DHT22;979;51.076;13.748;2023-05-07T13:41:03;19.90;55.10
1958;DHT22;979;51.076;13.748;2023-05-07T13:43:31;19.90;55.50
1958;DHT22;979;51.076;13.748;2023-05-07T13:46:00;19.90;55.40
1958;DHT22;979;51.076;13.748;2023-05-07T13:48:29;20.00;55.80
1958;DHT22;979;51.076;13.748;2023-05-07T13:51:00;19.90;55.00
1958;DHT22;979;51.076;13.748;2023-05-07T13:53:29;19.90;54.90
1958;DHT22;979;51.076;13.748;2023-05-07T13:55:57;19.90;55.00
1958;DHT22;979;51.076;13.748;2023-05-07T13:58:25;19.90;54.90
1958;DHT22;979;51.076;13.748;2023-05-07T14:00:53;19.80;54.60
1958;DHT22;979;51.076;13.748;2023-05-07T14:03:22;19.70;54.80
1958;DHT22;979;51.076;13.748;2023-05-07T14:05:50;19.70;55.30
1958;DHT22;979;51.076;13.748;2023-05-07T14:08:20;19.60;54.70
1958;DHT22;979;51.076;13.748;2023-05-07T14:10:49;19.50;54.90
1958;DHT22;979;51.076;13.748;2023-05-07T14:13:17;19.40;54.80
1958;DHT22;979;51.076;13.748;2023-05-07T14:15:46;19.20;54.80
1958;DHT22;979;51.076;13.748;2023-05-07T14:18:16;19.30;55.30
1958;DHT22;979;51.076;13.748;2023-05-07T14:20:44;19.30;55.20
1958;DHT22;979;51.076;13.748;2023-05-07T14:23:14;19.30;54.70
1958;DHT22;979;51.076;13.748;2023-05-07T14:25:46;19.30;55.10
1958;DHT22;979;51.076;13.748;2023-05-07T14:28:14;19.40;55.40
1958;DHT22;979;51.076;13.748;2023-05-07T14:30:43;19.60;55.70
1958;DHT22;979;51.076;13.748;2023-05-07T14:33:11;19.70;55.40
1958;DHT22;979;51.076;13.748;2023-05-07T14:35:39;19.80;55.10
1958;DHT22;979;51.076;13.748;2023-05-07T14:38:08;20.00;55.20
1958;DHT22;979;51.076;13.748;2023-05-07T14:40:36;20.60;55.40
1958;DHT22;979;51.076;13.748;2023-05-07T14:43:06;21.00;54.60
1958;DHT22;979;51.076;13.748;2023-05-07T14:45:35;21.10;54.10
1958;DHT22;979;51.076;13.748;2023-05-07T14:48:04;21.10;53.90
1958;DHT22;979;51.076;13.748;2023-05-07T14:50:32;20.90;53.50
1958;DHT22;979;51.076;13.748;2023-05-07T14:53:00;20.80;54.10
1958;DHT22;979;51.076;13.748;2023-05-07T14:55:29;20.60;53.80
1958;DHT22;979;51.076;13.748;2023-05-07T14:58:00;20.40;53.90
1958;DHT22;979;51.076;13.748;2023-05-07T15:00:29;20.30;53.90
1958;DHT22;979;51.076;13.748;2023-05-07T15:03:05;20.00;53.70
1958;DHT22;979;51.076;13.748;2023-05-07T15:05:35;19.80;53.90
1958;DHT22;979;51.076;13.748;2023-05-07T15:08:04;19.50;54.10
1958;DHT22;979;51.076;13.748;2023-05-07T15:10:35;19.40;54.40
1958;DHT22;979;51.076;13.748;2023-05-07T15:13:07;19.40;54.50
1958;DHT22;979;51.076;13.748;2023-05-07T15:15:44;19.20;54.40
1958;DHT22;979;51.076;13.748;2023-05-07T15:18:13;19.00;54.40
1958;DHT22;979;51.076;13.748;2023-05-07T15:20:41;18.90;54.50
1958;DHT22;979;51.076;13.748;2023-05-07T15:23:10;18.70;54.70
1958;DHT22;979;51.076;13.748;2023-05-07T15:25:40;18.50;54.90
1958;DHT22;979;51.076;13.748;2023-05-07T15:28:09;18.40;55.00
1958;DHT22;979;51.076;13.748;2023-05-07T15:30:38;18.40;55.20
1958;DHT22;979;51.076;13.748;2023-05-07T15:33:08;18.30;55.20
1958;DHT22;979;51.076;13.748;2023-05-07T15:35:37;18.30;55.20
1958;DHT22;979;51.076;13.748;2023-05-07T15:38:05;18.30;55.20
1958;DHT22;979;51.076;13.748;2023-05-07T15:40:35;18.20;55.20
1958;DHT22;979;51.076;13.748;2023-05-07T15:43:12;18.20;55.20
1958;DHT22;979;51.076;13.748;2023-05-07T15:45:41;18.20;55.50
1958;DHT22;979;51.076;13.748;2023-05-07T15:48:13;18.10;55.30
1958;DHT22;979;51.076;13.748;2023-05-07T15:50:41;18.00;55.60
1958;DHT22;979;51.076;13.748;2023-05-07T15:53:10;17.80;55.50
1958;DHT22;979;51.076;13.748;2023-05-07T15:55:42;17.70;55.50
1958;DHT22;979;51.076;13.748;2023-05-07T15:58:12;17.50;55.70
1958;DHT22;979;51.076;13.748;2023-05-07T16:00:41;17.40;55.90
1958;DHT22;979;51.076;13.748;2023-05-07T16:03:10;17.30;56.10
1958;DHT22;979;51.076;13.748;2023-05-07T16:05:40;17.30;56.30
1958;DHT22;979;51.076;13.748;2023-05-07T16:08:09;17.20;56.20
1958;DHT22;979;51.076;13.748;2023-05-07T16:10:37;17.20;56.40
1958;DHT22;979;51.076;13.748;2023-05-07T16:13:06;17.10;56.60
1958;DHT22;979;51.076;13.748;2023-05-07T16:15:34;17.00;56.60
1958;DHT22;979;51.076;13.748;2023-05-07T16:18:10;16.90;56.40
1958;DHT22;979;51.076;13.748;2023-05-07T16:20:45;16.90;56.50
1958;DHT22;979;51.076;13.748;2023-05-07T16:23:14;16.80;56.70
1958;DHT22;979;51.076;13.748;2023-05-07T16:25:42;16.80;56.90
1958;DHT22;979;51.076;13.748;2023-05-07T16:28:11;16.80;56.90
1958;DHT22;979;51.076;13.748;2023-05-07T16:30:39;16.80;56.90
1958;DHT22;979;51.076;13.748;2023-05-07T16:33:07;16.70;57.10
1958;DHT22;979;51.076;13.748;2023-05-07T16:35:36;16.80;57.50
1958;DHT22;979;51.076;13.748;2023-05-07T16:38:06;17.10;58.10
1958;DHT22;979;51.076;13.748;2023-05-07T16:40:59;17.70;58.40
1958;DHT22;979;51.076;13.748;2023-05-07T16:44:00;18.10;57.50
1958;DHT22;979;51.076;13.748;2023-05-07T16:46:29;18.10;56.50
1958;DHT22;979;51.076;13.748;2023-05-07T16:48:59;18.10;56.30
1958;DHT22;979;51.076;13.748;2023-05-07T16:51:27;17.90;55.80
1958;DHT22;979;51.076;13.748;2023-05-07T16:53:57;17.70;55.70
1958;DHT22;979;51.076;13.748;2023-05-07T16:56:26;17.50;55.90
1958;DHT22;979;51.076;13.748;2023-05-07T16:58:54;17.40;56.10
1958;DHT22;979;51.076;13.748;2023-05-07T17:01:26;17.40;56.30